createdAt,value
2022-09-07T00:00:55.628Z,0.40
2022-09-07T00:03:57.962Z,0.40
2022-09-07T00:06:59.746Z,0.40
2022-09-07T00:10:01.360Z,0.30
2022-09-07T00:13:03.757Z,0.30
2022-09-07T00:16:11.037Z,0.30
2022-09-07T00:19:12.751Z,0.30
2022-09-07T00:22:14.313Z,0.38
2022-09-07T00:25:16.121Z,0.40
2022-09-07T00:28:17.946Z,0.40
2022-09-07T00:31:22.230Z,0.30
2022-09-07T00:34:23.859Z,0.30
2022-09-07T00:37:25.477Z,0.40
2022-09-07T00:40:27.148Z,0.30
2022-09-07T00:43:34.743Z,0.30
2022-09-07T00:46:37.053Z,0.30
2022-09-07T00:49:39.939Z,0.50
2022-09-07T00:52:48.368Z,0.40
2022-09-07T00:55:52.447Z,0.38
2022-09-07T00:58:54.892Z,0.20
2022-09-07T01:01:56.751Z,0.40
2022-09-07T01:05:09.600Z,0.40
2022-09-07T01:08:13.304Z,0.30
2022-09-07T01:11:15.642Z,0.40
2022-09-07T01:14:29.560Z,0.40
2022-09-07T01:17:33.847Z,0.30
2022-09-07T01:20:50.745Z,0.40
2022-09-07T01:24:17.137Z,0.40
2022-09-07T01:27:33.315Z,0.30
2022-09-07T01:30:41.782Z,0.30
2022-09-07T01:33:54.597Z,0.40
2022-09-07T01:37:22.525Z,0.30
2022-09-07T01:40:33.029Z,0.40
2022-09-07T01:43:48.400Z,0.43
2022-09-07T01:46:57.013Z,0.40
2022-09-07T01:50:10.712Z,0.43
2022-09-07T01:53:19.746Z,0.30
2022-09-07T01:56:28.982Z,0.30
2022-09-07T01:59:35.939Z,0.30
2022-09-07T02:03:11.039Z,0.40
2022-09-07T02:06:25.729Z,0.30
2022-09-07T02:09:44.001Z,0.47
2022-09-07T02:12:53.053Z,0.40
2022-09-07T02:16:06.825Z,0.40
2022-09-07T02:19:14.143Z,0.40
2022-09-07T02:22:18.569Z,0.30
2022-09-07T02:25:26.031Z,0.40
2022-09-07T02:28:30.740Z,0.43
2022-09-07T02:31:33.067Z,0.40
2022-09-07T02:34:34.969Z,0.30
2022-09-07T02:37:38.428Z,0.47
2022-09-07T02:40:40.216Z,0.40
2022-09-07T02:43:41.800Z,0.40
2022-09-07T02:46:46.411Z,0.50
2022-09-07T02:49:51.394Z,0.50
2022-09-07T02:53:11.272Z,0.40
2022-09-07T02:56:42.151Z,0.43
2022-09-07T02:59:48.324Z,0.30
2022-09-07T03:03:02.081Z,0.40
2022-09-07T03:06:09.856Z,0.40
2022-09-07T03:09:19.672Z,0.40
2022-09-07T03:12:21.641Z,0.38
2022-09-07T03:15:27.289Z,0.20
2022-09-07T03:18:29.557Z,0.50
2022-09-07T03:21:32.112Z,0.30
2022-09-07T03:24:33.743Z,0.20
2022-09-07T03:27:35.369Z,0.30
2022-09-07T03:30:37.131Z,0.20
2022-09-07T03:33:38.769Z,0.20
2022-09-07T03:36:40.380Z,0.20
2022-09-07T03:39:41.990Z,0.20
2022-09-07T03:42:47.644Z,0.10
2022-09-07T03:45:49.254Z,0.20
2022-09-07T03:48:50.974Z,0.15
2022-09-07T03:51:52.537Z,0.20
2022-09-07T03:54:54.129Z,0.20
2022-09-07T03:57:55.680Z,0.20
2022-09-07T04:00:58.422Z,0.20
2022-09-07T04:04:02.695Z,0.20
2022-09-07T04:07:05.856Z,0.10
2022-09-07T04:10:08.009Z,0.20
2022-09-07T04:13:09.865Z,0.30
2022-09-07T04:16:23.812Z,0.30
2022-09-07T04:19:25.437Z,0.20
2022-09-07T04:22:27.023Z,0.20
2022-09-07T04:25:28.672Z,0.20
2022-09-07T04:28:30.536Z,0.22
2022-09-07T04:31:34.039Z,0.20
2022-09-07T04:34:35.642Z,0.15
2022-09-07T04:37:37.265Z,0.20
2022-09-07T04:40:39.191Z,0.13
2022-09-07T04:43:43.277Z,0.10
2022-09-07T04:46:45.036Z,0.17
2022-09-07T04:49:50.657Z,0.10
2022-09-07T04:52:52.300Z,0.20
2022-09-07T04:55:53.908Z,0.17
2022-09-07T04:58:55.616Z,0.25
2022-09-07T05:01:57.300Z,0.25
2022-09-07T05:05:02.586Z,0.20
2022-09-07T05:08:04.537Z,0.28
2022-09-07T05:11:06.483Z,0.25
2022-09-07T05:14:08.219Z,0.30
2022-09-07T05:17:09.877Z,0.40
2022-09-07T05:20:11.477Z,0.40
2022-09-07T05:23:13.254Z,0.30
2022-09-07T05:26:14.926Z,0.30
2022-09-07T05:32:38.193Z,0.30
2022-09-07T05:35:39.820Z,0.38
2022-09-07T05:38:42.160Z,0.30
2022-09-07T05:41:43.780Z,0.20
2022-09-07T05:44:45.873Z,0.20
2022-09-07T05:47:50.794Z,0.28
2022-09-07T05:50:52.778Z,0.20
2022-09-07T05:53:56.341Z,0.30
2022-09-07T05:56:57.916Z,0.45
2022-09-07T05:59:59.561Z,0.52
2022-09-07T06:03:02.001Z,0.40
2022-09-07T06:06:06.734Z,0.40
2022-09-07T06:09:11.364Z,0.40
2022-09-07T06:12:14.253Z,0.40
2022-09-07T06:15:15.948Z,0.60
2022-09-07T06:18:17.496Z,0.40
2022-09-07T06:21:21.967Z,0.50
2022-09-07T06:24:23.580Z,0.43
2022-09-07T06:27:25.311Z,0.45
2022-09-07T06:30:27.138Z,0.60
2022-09-07T06:33:29.172Z,0.55
2022-09-07T06:36:31.263Z,0.60
2022-09-07T06:39:34.537Z,0.60
2022-09-07T06:42:36.221Z,0.80
2022-09-07T06:45:37.881Z,0.55
2022-09-07T06:48:43.820Z,0.40
2022-09-07T06:51:46.273Z,0.40
2022-09-07T06:55:03.427Z,0.30
2022-09-07T06:58:05.332Z,0.47
2022-09-07T07:01:18.481Z,0.50
2022-09-07T07:04:20.314Z,0.50
2022-09-07T07:07:21.985Z,0.40
2022-09-07T07:10:25.077Z,0.40
2022-09-07T07:13:27.501Z,0.30
2022-09-07T07:16:29.283Z,0.20
2022-09-07T07:19:30.992Z,0.20
2022-09-07T07:22:47.898Z,0.25
2022-09-07T07:25:49.515Z,0.22
2022-09-07T07:32:01.870Z,0.30
2022-09-07T07:35:03.702Z,0.50
2022-09-07T07:48:14.802Z,0.20
2022-09-07T07:51:16.356Z,0.20
2022-09-07T07:54:17.956Z,0.20
2022-09-07T07:57:19.520Z,0.20
2022-09-07T08:00:37.457Z,0.30
2022-09-07T08:03:45.259Z,0.30
2022-09-07T08:06:46.787Z,0.20
2022-09-07T08:09:48.576Z,0.30
2022-09-07T08:12:50.147Z,0.25
2022-09-07T08:15:52.181Z,0.28
2022-09-07T08:18:53.973Z,0.30
2022-09-07T08:21:55.509Z,0.20
2022-09-07T08:24:57.115Z,0.30
2022-09-07T08:27:58.620Z,0.30
2022-09-07T08:31:04.686Z,0.38
2022-09-07T08:34:07.747Z,0.30
2022-09-07T08:37:09.288Z,0.40
2022-09-07T08:40:17.009Z,0.35
2022-09-07T08:43:39.948Z,0.40
2022-09-07T08:46:50.409Z,0.40
2022-09-07T08:50:01.281Z,0.45
2022-09-07T08:53:19.711Z,0.50
2022-09-07T08:57:20.612Z,0.50
2022-09-07T09:00:14.123Z,0.40
2022-09-07T09:03:32.571Z,0.50
2022-09-07T09:06:37.558Z,0.60
2022-09-07T09:10:07.238Z,0.50
2022-09-07T09:13:19.528Z,0.70
2022-09-07T09:16:35.774Z,0.50
2022-09-07T09:19:49.459Z,0.50
2022-09-07T09:22:56.508Z,0.47
2022-09-07T09:26:04.485Z,0.75
2022-09-07T09:29:13.948Z,0.50
2022-09-07T09:32:33.615Z,0.40
2022-09-07T09:35:36.310Z,0.50
2022-09-07T09:38:39.625Z,0.40
2022-09-07T09:41:41.297Z,0.30
2022-09-07T09:44:43.806Z,0.30
2022-09-07T09:47:54.254Z,0.40
2022-09-07T09:54:20.305Z,0.20
2022-09-07T10:01:24.207Z,0.20
2022-09-07T10:04:33.940Z,0.30
2022-09-07T10:07:35.686Z,0.20
2022-09-07T10:10:37.892Z,0.20
2022-09-07T10:13:55.946Z,0.20
2022-09-07T10:16:59.121Z,0.20
2022-09-07T10:20:21.657Z,0.17
2022-09-07T10:23:25.304Z,0.25
2022-09-07T10:26:33.459Z,0.15
2022-09-07T10:29:36.058Z,0.30
2022-09-07T10:32:51.985Z,0.20
2022-09-07T10:36:01.938Z,0.30
2022-09-07T10:39:13.177Z,0.28
2022-09-07T10:42:26.261Z,0.30
2022-09-07T10:45:58.937Z,0.40
2022-09-07T10:49:03.326Z,0.30
2022-09-07T10:52:22.373Z,0.20
2022-09-07T10:55:32.416Z,0.20
2022-09-07T10:59:07.885Z,0.10
2022-09-07T11:02:09.403Z,0.10
2022-09-07T11:05:59.383Z,0.10
2022-09-07T11:09:29.175Z,0.10
2022-09-07T11:12:36.070Z,0.10
2022-09-07T11:15:46.600Z,0.10
2022-09-07T11:19:35.183Z,0.10
2022-09-07T11:22:27.941Z,0.10
2022-09-07T11:25:42.628Z,0.10
2022-09-07T11:32:31.396Z,0.20
2022-09-07T11:35:48.471Z,0.10
2022-09-07T11:38:55.461Z,0.10
2022-09-07T11:42:42.923Z,0.10
2022-09-07T11:46:05.118Z,0.20
2022-09-07T11:49:27.157Z,0.10
2022-09-07T11:52:34.055Z,0.20
2022-09-07T11:55:40.903Z,0.20
2022-09-07T11:58:51.400Z,0.17
2022-09-07T12:02:15.820Z,0.17
2022-09-07T12:05:23.297Z,0.20
2022-09-07T12:08:33.854Z,0.10
2022-09-07T12:11:44.420Z,0.10
2022-09-07T12:15:01.331Z,0.10
2022-09-07T12:18:16.884Z,0.10
2022-09-07T12:21:53.619Z,0.20
2022-09-07T12:24:55.413Z,0.10
2022-09-07T12:27:57.845Z,0.10
2022-09-07T12:31:01.502Z,0.10
2022-09-07T12:34:31.272Z,0.15
2022-09-07T12:37:40.841Z,0.20
2022-09-07T12:40:48.307Z,0.15
2022-09-07T12:43:49.849Z,0.20
2022-09-07T12:46:54.159Z,0.10
2022-09-07T12:50:10.094Z,0.10
2022-09-07T12:53:33.063Z,0.10
2022-09-07T12:56:46.411Z,0.10
2022-09-07T13:00:07.263Z,0.20
2022-09-07T13:03:51.907Z,0.10
2022-09-07T13:07:13.027Z,0.10
2022-09-07T13:10:30.747Z,0.20
2022-09-07T13:17:33.005Z,0.10
2022-09-07T13:20:39.688Z,0.10
2022-09-07T13:23:45.493Z,0.20
2022-09-07T13:27:05.679Z,0.10
2022-09-07T13:30:16.689Z,0.10
2022-09-07T13:33:24.310Z,0.10
2022-09-07T13:36:39.054Z,0.13
2022-09-07T13:39:44.916Z,0.13
2022-09-07T13:42:48.433Z,0.10
2022-09-07T13:45:50.045Z,0.10
2022-09-07T13:48:59.612Z,0.10
2022-09-07T13:52:08.971Z,0.20
2022-09-07T13:55:25.588Z,0.10
2022-09-07T13:58:41.292Z,0.10
2022-09-07T14:01:47.337Z,0.10
2022-09-07T14:04:52.911Z,0.10
2022-09-07T14:07:54.516Z,0.10
2022-09-07T14:10:56.107Z,0.15
2022-09-07T14:14:21.336Z,0.20
2022-09-07T14:17:22.902Z,0.22
2022-09-07T14:20:25.152Z,0.10
2022-09-07T14:23:35.607Z,0.10
2022-09-07T14:26:45.154Z,0.20
2022-09-07T14:29:46.747Z,0.10
2022-09-07T14:32:52.484Z,0.10
2022-09-07T14:35:55.204Z,0.10
2022-09-07T14:39:06.069Z,0.10
2022-09-07T14:42:12.238Z,0.10
2022-09-07T14:45:20.989Z,0.10
2022-09-07T14:48:31.451Z,0.10
2022-09-07T14:51:36.563Z,0.20
2022-09-07T14:54:38.600Z,0.15
2022-09-07T14:57:40.257Z,0.13
2022-09-07T15:00:44.639Z,0.20
2022-09-07T15:03:46.442Z,0.10
2022-09-07T15:07:03.630Z,0.10
2022-09-07T15:10:20.261Z,0.20
2022-09-07T15:13:25.989Z,0.20
2022-09-07T15:16:28.876Z,0.10
2022-09-07T15:19:33.037Z,0.10
2022-09-07T15:22:34.542Z,0.10
2022-09-07T15:25:36.842Z,0.20
2022-09-07T15:32:04.497Z,0.10
2022-09-07T15:35:07.081Z,0.20
2022-09-07T15:41:30.887Z,0.10
2022-09-07T15:44:32.508Z,0.10
2022-09-07T15:47:51.991Z,0.20
2022-09-07T15:52:04.866Z,0.20
2022-09-07T15:54:28.057Z,0.20
2022-09-07T16:01:51.587Z,0.20
2022-09-07T16:04:15.523Z,0.10
2022-09-07T16:07:17.695Z,0.20
2022-09-07T16:10:19.459Z,0.10
2022-09-07T16:13:24.016Z,0.10
2022-09-07T16:17:26.528Z,0.13
2022-09-07T16:19:48.142Z,0.20
2022-09-07T16:26:12.426Z,0.20
2022-09-07T16:29:14.052Z,0.20
2022-09-07T16:35:37.542Z,0.20
2022-09-07T16:38:44.754Z,0.20
2022-09-07T16:41:46.894Z,0.10
2022-09-07T16:44:48.567Z,0.10
2022-09-07T16:47:50.183Z,0.10
2022-09-07T16:50:58.949Z,0.10
2022-09-07T16:54:03.054Z,0.20
2022-09-07T16:57:04.782Z,0.10
2022-09-07T17:00:07.011Z,0.20
2022-09-07T17:03:09.517Z,0.10
2022-09-07T17:06:13.147Z,0.10
2022-09-07T17:09:14.952Z,0.25
2022-09-07T17:12:16.502Z,0.20
2022-09-07T17:15:18.211Z,0.10
2022-09-07T17:19:28.793Z,0.20
2022-09-07T17:21:42.119Z,0.15
2022-09-07T17:24:43.701Z,0.20
2022-09-07T17:27:46.006Z,0.20
2022-09-07T17:30:47.728Z,0.20
2022-09-07T17:33:51.780Z,0.13
2022-09-07T17:36:53.519Z,0.20
2022-09-07T17:39:55.220Z,0.20
2022-09-07T17:46:20.316Z,0.20
2022-09-07T17:49:22.117Z,0.20
2022-09-07T17:52:23.877Z,0.10
2022-09-07T17:55:25.671Z,0.15
2022-09-07T17:58:27.505Z,0.20
2022-09-07T18:01:29.165Z,0.13
2022-09-07T18:04:31.264Z,0.20
2022-09-07T18:07:33.067Z,0.20
2022-09-07T18:13:58.154Z,0.20
2022-09-07T18:17:00.340Z,0.20
2022-09-07T18:20:02.197Z,0.20
2022-09-07T18:23:03.757Z,0.20
2022-09-07T18:26:05.758Z,0.20
2022-09-07T18:29:25.851Z,0.20
2022-09-07T18:32:29.268Z,0.10
2022-09-07T18:35:31.565Z,0.20
2022-09-07T18:38:34.035Z,0.10
2022-09-07T18:41:37.202Z,0.20
2022-09-07T18:48:00.463Z,0.22
2022-09-07T18:51:02.621Z,0.10
2022-09-07T18:54:05.001Z,0.10
2022-09-07T18:57:07.293Z,0.20
2022-09-07T19:00:10.573Z,0.17
2022-09-07T19:03:12.289Z,0.13
2022-09-07T19:06:15.208Z,0.10
2022-09-07T19:09:16.805Z,0.10
2022-09-07T19:12:18.329Z,0.20
2022-09-07T19:15:20.547Z,0.17
2022-09-07T19:18:22.197Z,0.10
2022-09-07T19:21:34.640Z,0.20
2022-09-07T19:24:37.500Z,0.20
2022-09-07T19:27:39.202Z,0.20
2022-09-07T19:30:43.357Z,0.20
2022-09-07T19:33:45.265Z,0.20
2022-09-07T19:36:46.861Z,0.10
2022-09-07T19:39:49.302Z,0.20
2022-09-07T19:42:51.130Z,0.20
2022-09-07T19:45:53.034Z,0.20
2022-09-07T19:48:56.234Z,0.20
2022-09-07T19:51:57.902Z,0.10
2022-09-07T19:55:02.783Z,0.10
2022-09-07T19:58:04.525Z,0.10
2022-09-07T20:01:11.948Z,0.20
2022-09-07T20:04:20.427Z,0.10
2022-09-07T20:07:22.443Z,0.15
2022-09-07T20:10:24.416Z,0.10
2022-09-07T20:13:26.049Z,0.10
2022-09-07T20:16:31.237Z,0.17
2022-09-07T20:19:32.873Z,0.10
2022-09-07T20:22:34.483Z,0.20
2022-09-07T20:25:36.320Z,0.20
2022-09-07T20:28:38.916Z,0.10
2022-09-07T20:31:40.846Z,0.13
2022-09-07T20:34:42.601Z,0.10
2022-09-07T20:37:44.279Z,0.20
2022-09-07T20:40:56.716Z,0.10
2022-09-07T20:44:00.079Z,0.10
2022-09-07T20:47:01.662Z,0.10
2022-09-07T20:50:03.327Z,0.22
2022-09-07T20:53:05.243Z,0.10
2022-09-07T20:56:13.262Z,0.15
2022-09-07T20:59:15.664Z,0.10
2022-09-07T21:02:17.923Z,0.20
2022-09-07T21:05:19.700Z,0.13
2022-09-07T21:08:21.456Z,0.20
2022-09-07T21:11:25.809Z,0.10
2022-09-07T21:14:27.481Z,0.20
2022-09-07T21:17:28.985Z,0.10
2022-09-07T21:20:30.537Z,0.10
2022-09-07T21:23:34.924Z,0.20
2022-09-07T21:26:36.507Z,0.20
2022-09-07T21:29:38.159Z,0.20
2022-09-07T21:32:40.806Z,0.20
2022-09-07T21:35:42.531Z,0.20
2022-09-07T21:38:44.573Z,0.10
2022-09-07T21:41:46.238Z,0.20
2022-09-07T21:44:47.856Z,0.20
2022-09-07T21:47:49.433Z,0.20
2022-09-07T21:50:56.979Z,0.25
2022-09-07T21:54:00.311Z,0.20
2022-09-07T21:57:01.812Z,0.30
2022-09-07T22:00:07.772Z,0.20
2022-09-07T22:03:09.268Z,0.20
2022-09-07T22:06:11.789Z,0.28
2022-09-07T22:09:13.709Z,0.20
2022-09-07T22:12:15.318Z,0.20
2022-09-07T22:15:16.890Z,0.20
2022-09-07T22:18:18.399Z,0.20
2022-09-07T22:21:25.810Z,0.28
2022-09-07T22:24:27.417Z,0.28
2022-09-07T22:27:29.116Z,0.20
2022-09-07T22:30:30.765Z,0.20
2022-09-07T22:33:32.407Z,0.20
2022-09-07T22:36:37.440Z,0.30
2022-09-07T22:39:39.213Z,0.25
2022-09-07T22:42:41.525Z,0.25
2022-09-07T22:45:43.170Z,0.13
2022-09-07T22:48:44.765Z,0.20
2022-09-07T22:51:47.127Z,0.20
2022-09-07T22:54:48.692Z,0.28
2022-09-07T22:57:50.432Z,0.20
2022-09-07T23:00:52.877Z,0.28
2022-09-07T23:03:55.544Z,0.30
2022-09-07T23:06:57.445Z,0.30
2022-09-07T23:10:00.314Z,0.20
2022-09-07T23:13:03.352Z,0.30
2022-09-07T23:16:07.093Z,0.40
2022-09-07T23:19:10.573Z,0.30
2022-09-07T23:22:12.218Z,0.20
2022-09-07T23:25:13.838Z,0.20
2022-09-07T23:28:15.335Z,0.17
2022-09-07T23:31:16.939Z,0.20
2022-09-07T23:34:19.169Z,0.30
2022-09-07T23:37:21.254Z,0.20
2022-09-07T23:40:22.918Z,0.20
2022-09-07T23:43:27.349Z,0.28
2022-09-07T23:46:29.208Z,0.28
2022-09-07T23:49:30.785Z,0.30
2022-09-07T23:52:32.524Z,0.28
2022-09-07T23:55:34.109Z,0.20
2022-09-07T23:58:35.734Z,0.20
